createdAt,value
2024-03-10T00:00:11.506Z,9.62
2024-03-10T00:02:38.428Z,9.56
2024-03-10T00:05:05.050Z,9.58
2024-03-10T00:07:31.504Z,9.33
2024-03-10T00:09:57.953Z,9.39
2024-03-10T00:12:24.376Z,9.40
2024-03-10T00:14:50.985Z,9.48
2024-03-10T00:17:17.605Z,9.45
2024-03-10T00:19:44.110Z,9.34
2024-03-10T00:22:10.502Z,9.35
2024-03-10T00:24:36.892Z,9.41
2024-03-10T00:27:03.942Z,9.30
2024-03-10T00:29:31.461Z,9.29
2024-03-10T00:32:00.551Z,9.30
2024-03-10T00:34:27.058Z,9.14
2024-03-10T00:36:53.394Z,9.08
2024-03-10T00:39:19.965Z,9.27
2024-03-10T00:41:46.479Z,9.23
2024-03-10T00:44:12.935Z,9.30
2024-03-10T00:46:39.366Z,9.39
2024-03-10T00:49:05.946Z,9.38
2024-03-10T00:51:32.853Z,9.17
2024-03-10T00:54:00.942Z,9.14
2024-03-10T00:56:27.442Z,9.17
2024-03-10T00:58:53.876Z,9.00
2024-03-10T01:01:20.361Z,8.87
2024-03-10T01:03:46.845Z,8.96
2024-03-10T01:06:14.035Z,9.25
2024-03-10T01:08:40.683Z,8.93
2024-03-10T01:11:07.230Z,9.05
2024-03-10T01:13:34.466Z,9.25
2024-03-10T01:16:00.831Z,9.12
2024-03-10T01:18:27.543Z,9.12
2024-03-10T01:20:54.325Z,9.21
2024-03-10T01:23:20.859Z,9.29
2024-03-10T01:25:47.333Z,9.42
2024-03-10T01:28:13.842Z,9.43
2024-03-10T01:30:40.265Z,9.39
2024-03-10T01:33:07.198Z,9.31
2024-03-10T01:35:33.875Z,9.11
2024-03-10T01:38:01.416Z,9.31
2024-03-10T01:40:28.898Z,9.38
2024-03-10T01:42:55.289Z,9.32
2024-03-10T01:45:21.788Z,9.42
2024-03-10T01:47:49.030Z,9.47
2024-03-10T01:50:15.511Z,9.49
2024-03-10T01:52:42.022Z,9.40
2024-03-10T01:55:08.459Z,9.51
2024-03-10T01:57:36.987Z,9.41
2024-03-10T02:00:03.452Z,9.60
2024-03-10T02:02:30.271Z,9.66
2024-03-10T02:04:56.781Z,9.53
2024-03-10T02:07:23.290Z,9.69
2024-03-10T02:09:55.417Z,9.43
2024-03-10T02:12:21.836Z,9.58
2024-03-10T02:14:48.715Z,9.52
2024-03-10T02:17:16.809Z,9.65
2024-03-10T02:19:43.430Z,9.48
2024-03-10T02:22:10.188Z,9.65
2024-03-10T02:24:36.692Z,9.70
2024-03-10T02:27:03.741Z,9.60
2024-03-10T02:29:30.273Z,9.50
2024-03-10T02:31:57.085Z,9.41
2024-03-10T02:34:23.498Z,9.32
2024-03-10T02:36:50.335Z,9.50
2024-03-10T02:39:16.740Z,9.59
2024-03-10T02:41:43.623Z,9.35
2024-03-10T02:44:10.128Z,9.21
2024-03-10T02:46:36.787Z,9.45
2024-03-10T02:49:03.520Z,9.44
2024-03-10T02:51:29.902Z,9.60
2024-03-10T02:53:56.288Z,9.49
2024-03-10T02:56:23.937Z,9.28
2024-03-10T02:58:50.574Z,9.14
2024-03-10T03:01:18.328Z,9.27
2024-03-10T03:03:44.775Z,9.19
2024-03-10T03:06:11.732Z,9.25
2024-03-10T03:08:38.255Z,9.21
2024-03-10T03:11:04.964Z,9.30
2024-03-10T03:13:31.965Z,9.39
2024-03-10T03:15:58.376Z,9.50
2024-03-10T03:18:24.872Z,9.56
2024-03-10T03:20:51.611Z,9.41
2024-03-10T03:23:18.077Z,9.57
2024-03-10T03:25:44.928Z,9.41
2024-03-10T03:28:12.108Z,9.50
2024-03-10T03:30:38.656Z,9.40
2024-03-10T03:33:05.149Z,9.35
2024-03-10T03:35:31.752Z,9.54
2024-03-10T03:37:58.307Z,9.38
2024-03-10T03:40:24.843Z,9.15
2024-03-10T03:42:51.252Z,9.04
2024-03-10T03:45:17.796Z,9.34
2024-03-10T03:47:44.501Z,9.21
2024-03-10T03:50:11.244Z,9.10
2024-03-10T03:52:38.036Z,9.32
2024-03-10T03:55:04.642Z,9.37
2024-03-10T03:57:31.769Z,9.22
2024-03-10T03:59:58.300Z,9.33
2024-03-10T04:02:24.924Z,9.26
2024-03-10T04:04:51.586Z,8.85
2024-03-10T04:07:18.195Z,9.16
2024-03-10T04:09:45.970Z,9.30
2024-03-10T04:12:12.639Z,8.99
2024-03-10T04:14:39.180Z,9.07
2024-03-10T04:17:05.729Z,9.12
2024-03-10T04:19:32.287Z,9.12
2024-03-10T04:21:58.764Z,8.90
2024-03-10T04:24:25.256Z,9.21
2024-03-10T04:26:51.681Z,9.05
2024-03-10T04:29:18.182Z,9.33
2024-03-10T04:31:44.788Z,9.34
2024-03-10T04:34:11.333Z,9.38
2024-03-10T04:36:37.783Z,9.22
2024-03-10T04:39:04.416Z,9.28
2024-03-10T04:41:31.252Z,9.25
2024-03-10T04:43:57.734Z,9.40
2024-03-10T04:46:24.220Z,9.31
2024-03-10T04:48:51.202Z,9.22
2024-03-10T04:51:17.601Z,9.21
2024-03-10T04:53:44.088Z,9.28
2024-03-10T04:56:10.559Z,9.26
2024-03-10T04:58:37.038Z,9.14
2024-03-10T05:01:03.681Z,9.38
2024-03-10T05:03:30.137Z,9.32
2024-03-10T05:05:57.557Z,9.21
2024-03-10T05:08:24.008Z,9.30
2024-03-10T05:10:50.696Z,9.29
2024-03-10T05:13:17.326Z,9.23
2024-03-10T05:15:43.706Z,9.32
2024-03-10T05:18:10.239Z,9.43
2024-03-10T05:20:37.995Z,9.41
2024-03-10T05:23:04.539Z,9.47
2024-03-10T05:25:30.985Z,9.57
2024-03-10T05:27:57.750Z,9.37
2024-03-10T05:30:24.189Z,9.42
2024-03-10T05:32:50.877Z,9.35
2024-03-10T05:35:17.865Z,9.38
2024-03-10T05:37:44.319Z,9.35
2024-03-10T05:40:10.765Z,9.35
2024-03-10T05:42:37.186Z,9.24
2024-03-10T05:45:03.713Z,9.45
2024-03-10T05:47:30.740Z,9.46
2024-03-10T05:49:58.830Z,9.33
2024-03-10T05:52:26.382Z,9.31
2024-03-10T05:54:53.175Z,9.34
2024-03-10T05:57:20.284Z,9.43
2024-03-10T05:59:46.720Z,9.31
2024-03-10T06:02:13.212Z,9.35
2024-03-10T06:04:39.685Z,9.39
2024-03-10T06:07:06.140Z,9.42
2024-03-10T06:09:32.780Z,9.54
2024-03-10T06:12:00.663Z,9.58
2024-03-10T06:14:27.926Z,9.32
2024-03-10T06:16:54.479Z,9.60
2024-03-10T06:19:21.005Z,9.52
2024-03-10T06:21:47.495Z,9.49
2024-03-10T06:24:14.008Z,9.55
2024-03-10T06:26:42.519Z,9.55
2024-03-10T06:29:09.590Z,9.74
2024-03-10T06:31:36.026Z,9.58
2024-03-10T06:34:02.464Z,9.71
2024-03-10T06:36:28.943Z,9.71
2024-03-10T06:38:55.384Z,9.73
2024-03-10T06:41:21.921Z,9.74
2024-03-10T06:43:50.947Z,9.85
2024-03-10T06:46:19.277Z,9.75
2024-03-10T06:48:45.645Z,9.73
2024-03-10T06:51:12.160Z,9.49
2024-03-10T06:53:38.808Z,9.71
2024-03-10T06:56:07.242Z,9.91
2024-03-10T06:58:34.197Z,9.88
2024-03-10T07:01:00.796Z,10.06
2024-03-10T07:03:27.378Z,10.11
2024-03-10T07:05:53.881Z,9.90
2024-03-10T07:08:20.430Z,9.86
2024-03-10T07:10:47.420Z,9.78
2024-03-10T07:13:14.176Z,9.68
2024-03-10T07:15:40.752Z,9.85
2024-03-10T07:18:09.631Z,9.60
2024-03-10T07:20:36.249Z,9.81
2024-03-10T07:23:02.656Z,9.83
2024-03-10T07:25:32.134Z,9.98
2024-03-10T07:28:00.258Z,9.96
2024-03-10T07:30:26.805Z,9.78
2024-03-10T07:32:53.425Z,9.96
2024-03-10T07:35:19.879Z,9.93
2024-03-10T07:37:46.855Z,9.82
2024-03-10T07:40:13.347Z,9.89
2024-03-10T07:42:39.954Z,9.91
2024-03-10T07:45:07.720Z,10.00
2024-03-10T07:47:34.173Z,9.80
2024-03-10T07:50:00.707Z,9.89
2024-03-10T07:52:27.136Z,10.03
2024-03-10T07:54:53.796Z,10.08
2024-03-10T07:57:20.227Z,10.14
2024-03-10T07:59:46.597Z,10.01
2024-03-10T08:02:15.084Z,10.35
2024-03-10T08:04:43.035Z,10.22
2024-03-10T08:07:09.493Z,10.44
2024-03-10T08:09:35.867Z,10.55
2024-03-10T08:12:02.471Z,10.49
2024-03-10T08:14:29.213Z,10.56
2024-03-10T08:16:55.806Z,10.67
2024-03-10T08:19:22.658Z,10.78
2024-03-10T08:21:49.293Z,10.97
2024-03-10T08:24:15.790Z,10.88
2024-03-10T08:26:42.418Z,10.95
2024-03-10T08:29:08.887Z,10.83
2024-03-10T08:31:35.368Z,11.19
2024-03-10T08:34:01.881Z,10.99
2024-03-10T08:36:28.380Z,11.22
2024-03-10T08:38:54.861Z,11.10
2024-03-10T08:41:21.563Z,11.40
2024-03-10T08:43:50.512Z,11.34
2024-03-10T08:46:16.994Z,11.48
2024-03-10T08:48:43.400Z,11.72
2024-03-10T08:51:11.164Z,11.87
2024-03-10T08:53:37.640Z,11.75
2024-03-10T08:56:04.121Z,11.80
2024-03-10T08:58:30.594Z,11.79
2024-03-10T09:00:57.048Z,11.99
2024-03-10T09:03:23.909Z,12.25
2024-03-10T09:05:51.289Z,12.29
2024-03-10T09:08:18.765Z,12.02
2024-03-10T09:10:53.719Z,12.09
2024-03-10T09:13:29.256Z,11.93
2024-03-10T09:15:55.905Z,11.79
2024-03-10T09:18:22.316Z,12.15
2024-03-10T09:20:49.747Z,11.50
2024-03-10T09:23:16.972Z,11.62
2024-03-10T09:25:43.565Z,11.54
2024-03-10T09:28:10.301Z,11.62
2024-03-10T09:30:36.858Z,11.68
2024-03-10T09:33:03.348Z,11.00
2024-03-10T09:35:30.314Z,11.07
2024-03-10T09:37:57.030Z,11.43
2024-03-10T09:40:23.797Z,11.30
2024-03-10T09:42:50.474Z,11.44
2024-03-10T09:45:17.456Z,11.32
2024-03-10T09:47:44.606Z,11.53
2024-03-10T09:50:11.247Z,11.40
2024-03-10T09:52:37.845Z,11.61
2024-03-10T09:55:04.519Z,11.58
2024-03-10T09:57:31.181Z,11.74
2024-03-10T09:59:57.799Z,11.65
2024-03-10T10:02:24.327Z,11.64
2024-03-10T10:04:50.903Z,11.80
2024-03-10T10:07:17.382Z,11.85
2024-03-10T10:09:43.770Z,11.88
2024-03-10T10:12:10.582Z,11.70
2024-03-10T10:14:37.203Z,11.72
2024-03-10T10:17:04.055Z,11.93
2024-03-10T10:19:30.798Z,11.75
2024-03-10T10:21:57.368Z,11.99
2024-03-10T10:24:23.817Z,12.05
2024-03-10T10:26:50.644Z,12.19
2024-03-10T10:29:17.084Z,12.17
2024-03-10T10:31:43.483Z,12.08
2024-03-10T10:34:11.414Z,12.33
2024-03-10T10:36:38.101Z,12.54
2024-03-10T10:39:04.561Z,12.34
2024-03-10T10:41:31.069Z,12.30
2024-03-10T10:43:57.659Z,12.34
2024-03-10T10:46:24.481Z,12.23
2024-03-10T10:48:51.240Z,12.22
2024-03-10T10:51:17.619Z,12.42
2024-03-10T10:53:44.060Z,12.53
2024-03-10T10:56:10.645Z,12.31
2024-03-10T10:58:37.152Z,12.08
2024-03-10T11:01:03.643Z,12.36
2024-03-10T11:03:30.824Z,12.36
2024-03-10T11:05:57.798Z,12.48
2024-03-10T11:08:24.388Z,12.72
2024-03-10T11:10:51.140Z,12.56
2024-03-10T11:13:17.864Z,12.33
2024-03-10T11:15:44.326Z,12.72
2024-03-10T11:18:10.832Z,12.51
2024-03-10T11:20:37.334Z,12.48
2024-03-10T11:23:03.846Z,12.62
2024-03-10T11:25:30.335Z,12.61
2024-03-10T11:27:56.696Z,12.80
2024-03-10T11:30:23.096Z,12.54
2024-03-10T11:32:49.857Z,12.84
2024-03-10T11:35:16.499Z,13.19
2024-03-10T11:37:42.954Z,13.07
2024-03-10T11:40:09.493Z,12.99
2024-03-10T11:42:36.051Z,13.15
2024-03-10T11:45:02.781Z,13.29
2024-03-10T11:47:29.258Z,13.60
2024-03-10T11:49:55.750Z,13.52
2024-03-10T11:52:22.522Z,13.70
2024-03-10T11:54:49.469Z,13.42
2024-03-10T11:57:15.890Z,13.61
2024-03-10T11:59:42.356Z,13.77
2024-03-10T12:02:09.522Z,13.43
2024-03-10T12:04:35.951Z,13.86
2024-03-10T12:07:02.797Z,13.87
2024-03-10T12:09:29.371Z,13.89
2024-03-10T12:11:56.854Z,13.96
2024-03-10T12:14:23.489Z,14.17
2024-03-10T12:16:50.557Z,14.09
2024-03-10T12:19:16.960Z,14.04
2024-03-10T12:21:43.394Z,14.20
2024-03-10T12:24:09.913Z,14.12
2024-03-10T12:26:36.919Z,14.32
2024-03-10T12:29:03.521Z,14.16
2024-03-10T12:31:31.082Z,14.16
2024-03-10T12:33:57.804Z,13.87
2024-03-10T12:36:24.549Z,14.27
2024-03-10T12:38:51.213Z,14.13
2024-03-10T12:41:18.418Z,14.32
2024-03-10T12:43:45.061Z,14.35
2024-03-10T12:46:11.840Z,14.53
2024-03-10T12:48:38.501Z,14.18
2024-03-10T12:51:05.783Z,14.26
2024-03-10T12:53:33.217Z,14.33
2024-03-10T12:56:00.130Z,14.39
2024-03-10T12:58:27.191Z,14.77
2024-03-10T13:00:54.609Z,14.53
2024-03-10T13:03:21.184Z,14.55
2024-03-10T13:05:48.019Z,14.79
2024-03-10T13:08:15.570Z,14.87
2024-03-10T13:10:42.183Z,14.79
2024-03-10T13:13:08.853Z,14.74
2024-03-10T13:15:35.680Z,14.71
2024-03-10T13:18:02.365Z,14.78
2024-03-10T13:20:28.949Z,14.65
2024-03-10T13:22:55.566Z,14.57
2024-03-10T13:25:22.257Z,14.66
2024-03-10T13:27:49.196Z,14.35
2024-03-10T13:30:15.962Z,14.69
2024-03-10T13:32:42.774Z,14.80
2024-03-10T13:35:09.373Z,14.41
2024-03-10T13:37:35.885Z,14.74
2024-03-10T13:40:02.766Z,14.81
2024-03-10T13:42:29.412Z,14.78
2024-03-10T13:44:55.833Z,15.07
2024-03-10T13:47:22.561Z,15.19
2024-03-10T13:49:49.124Z,15.17
2024-03-10T13:52:19.716Z,15.28
2024-03-10T13:54:46.905Z,15.51
2024-03-10T13:57:13.364Z,15.17
2024-03-10T13:59:39.881Z,15.44
2024-03-10T14:02:06.630Z,15.43
2024-03-10T14:04:33.765Z,15.21
2024-03-10T14:07:00.238Z,15.30
2024-03-10T14:09:26.856Z,15.25
2024-03-10T14:11:53.523Z,15.34
2024-03-10T14:14:20.166Z,15.36
2024-03-10T14:16:47.108Z,15.53
2024-03-10T14:19:13.498Z,15.37
2024-03-10T14:21:40.347Z,15.32
2024-03-10T14:24:06.856Z,15.36
2024-03-10T14:26:34.309Z,15.39
2024-03-10T14:29:01.433Z,15.60
2024-03-10T14:31:28.130Z,15.26
2024-03-10T14:33:54.943Z,15.33
2024-03-10T14:36:21.889Z,15.47
2024-03-10T14:38:48.497Z,15.36
2024-03-10T14:41:15.091Z,15.12
2024-03-10T14:43:41.536Z,14.97
2024-03-10T14:46:08.458Z,15.08
2024-03-10T14:48:35.287Z,15.36
2024-03-10T14:51:01.956Z,15.47
2024-03-10T14:53:28.726Z,15.37
2024-03-10T14:55:55.229Z,15.49
2024-03-10T14:58:21.801Z,15.19
2024-03-10T15:00:48.306Z,15.30
2024-03-10T15:03:14.777Z,15.40
2024-03-10T15:05:41.436Z,15.35
2024-03-10T15:08:08.293Z,14.73
2024-03-10T15:10:34.814Z,14.99
2024-03-10T15:13:01.290Z,15.23
2024-03-10T15:15:27.755Z,15.09
2024-03-10T15:17:55.282Z,15.32
2024-03-10T15:20:21.845Z,15.19
2024-03-10T15:22:48.368Z,15.32
2024-03-10T15:25:15.382Z,15.07
2024-03-10T15:27:42.088Z,14.87
2024-03-10T15:30:08.545Z,15.17
2024-03-10T15:32:35.135Z,14.88
2024-03-10T15:35:02.734Z,15.25
2024-03-10T15:37:29.570Z,15.17
2024-03-10T15:39:56.548Z,15.39
2024-03-10T15:42:23.627Z,15.16
2024-03-10T15:44:50.572Z,15.18
2024-03-10T15:47:17.243Z,15.04
2024-03-10T15:49:44.107Z,15.07
2024-03-10T15:52:10.778Z,15.08
2024-03-10T15:54:37.670Z,15.19
2024-03-10T15:57:04.575Z,15.18
2024-03-10T15:59:32.024Z,15.06
2024-03-10T16:01:58.624Z,14.96
2024-03-10T16:04:28.947Z,14.86
2024-03-10T16:06:55.921Z,15.26
2024-03-10T16:09:22.430Z,15.10
2024-03-10T16:11:49.054Z,15.15
2024-03-10T16:14:15.797Z,15.04
2024-03-10T16:16:42.426Z,14.99
2024-03-10T16:19:09.000Z,14.94
2024-03-10T16:21:35.565Z,15.05
2024-03-10T16:24:02.300Z,15.00
2024-03-10T16:26:28.903Z,14.90
2024-03-10T16:28:55.727Z,15.02
2024-03-10T16:31:22.222Z,15.05
2024-03-10T16:33:49.828Z,14.86
2024-03-10T16:36:16.340Z,15.10
2024-03-10T16:38:43.230Z,14.86
2024-03-10T16:41:10.256Z,14.89
2024-03-10T16:43:37.521Z,15.24
2024-03-10T16:46:04.285Z,15.23
2024-03-10T16:48:31.053Z,14.98
2024-03-10T16:51:00.335Z,14.93
2024-03-10T16:53:26.824Z,14.94
2024-03-10T16:55:53.322Z,14.81
2024-03-10T16:58:19.788Z,14.77
2024-03-10T17:00:46.435Z,14.73
2024-03-10T17:03:13.244Z,14.67
2024-03-10T17:05:39.987Z,14.67
2024-03-10T17:08:07.165Z,14.86
2024-03-10T17:10:33.751Z,14.93
2024-03-10T17:13:00.662Z,14.96
2024-03-10T17:15:27.201Z,14.90
2024-03-10T17:17:53.859Z,15.04
2024-03-10T17:20:21.625Z,15.16
2024-03-10T17:22:48.985Z,14.96
2024-03-10T17:25:15.707Z,14.89
2024-03-10T17:27:42.139Z,14.93
2024-03-10T17:30:09.759Z,14.99
2024-03-10T17:32:36.843Z,15.07
2024-03-10T17:35:03.489Z,14.84
2024-03-10T17:37:30.312Z,14.83
2024-03-10T17:39:56.738Z,14.65
2024-03-10T17:42:23.771Z,14.87
2024-03-10T17:44:50.350Z,14.96
2024-03-10T17:47:16.833Z,14.65
2024-03-10T17:49:44.490Z,14.38
2024-03-10T17:52:12.033Z,14.65
2024-03-10T17:54:38.862Z,14.62
2024-03-10T17:57:05.359Z,14.78
2024-03-10T17:59:31.801Z,14.73
2024-03-10T18:01:58.556Z,14.71
2024-03-10T18:04:24.976Z,14.69
2024-03-10T18:06:51.797Z,14.70
2024-03-10T18:09:18.344Z,14.60
2024-03-10T18:11:45.046Z,14.70
2024-03-10T18:14:11.795Z,14.87
2024-03-10T18:16:38.479Z,14.83
2024-03-10T18:19:07.353Z,14.82
2024-03-10T18:21:36.027Z,14.84
2024-03-10T18:24:02.829Z,14.71
2024-03-10T18:26:29.347Z,14.75
2024-03-10T18:28:55.916Z,14.88
2024-03-10T18:31:22.378Z,14.69
2024-03-10T18:33:49.424Z,14.70
2024-03-10T18:36:16.426Z,14.76
2024-03-10T18:38:44.922Z,14.80
2024-03-10T18:41:11.615Z,14.56
2024-03-10T18:43:38.457Z,14.66
2024-03-10T18:46:08.955Z,14.80
2024-03-10T18:48:35.569Z,14.52
2024-03-10T18:51:06.963Z,14.44
2024-03-10T18:53:34.412Z,14.46
2024-03-10T18:56:05.060Z,14.62
2024-03-10T18:58:33.511Z,14.78
2024-03-10T19:00:59.969Z,15.07
2024-03-10T19:03:26.902Z,15.16
2024-03-10T19:05:55.688Z,15.23
2024-03-10T19:08:23.435Z,15.19
2024-03-10T19:10:49.960Z,14.92
2024-03-10T19:13:16.616Z,14.96
2024-03-10T19:15:43.013Z,14.82
2024-03-10T19:18:09.830Z,14.65
2024-03-10T19:20:37.518Z,14.75
2024-03-10T19:23:04.051Z,14.74
2024-03-10T19:25:30.556Z,14.71
2024-03-10T19:27:57.052Z,14.61
2024-03-10T19:30:23.627Z,14.43
2024-03-10T19:32:50.223Z,14.32
2024-03-10T19:35:16.936Z,14.38
2024-03-10T19:37:44.108Z,14.52
2024-03-10T19:40:10.657Z,14.55
2024-03-10T19:42:37.808Z,14.37
2024-03-10T19:45:05.053Z,14.43
2024-03-10T19:47:31.739Z,14.45
2024-03-10T19:50:00.297Z,14.46
2024-03-10T19:52:27.220Z,14.58
2024-03-10T19:54:53.756Z,14.63
2024-03-10T19:57:21.965Z,14.58
2024-03-10T19:59:48.414Z,14.70
2024-03-10T20:02:14.866Z,14.63
2024-03-10T20:04:41.393Z,14.48
2024-03-10T20:07:07.817Z,14.44
2024-03-10T20:09:34.838Z,14.50
2024-03-10T20:12:02.216Z,14.41
2024-03-10T20:14:28.924Z,14.50
2024-03-10T20:16:55.477Z,14.47
2024-03-10T20:19:21.958Z,14.65
2024-03-10T20:21:48.718Z,14.56
2024-03-10T20:24:15.987Z,14.54
2024-03-10T20:26:42.847Z,14.59
2024-03-10T20:29:09.975Z,14.60
2024-03-10T20:31:36.631Z,14.49
2024-03-10T20:34:06.462Z,14.39
2024-03-10T20:36:32.890Z,14.43
2024-03-10T20:39:00.417Z,14.55
2024-03-10T20:41:27.092Z,14.36
2024-03-10T20:43:53.592Z,14.52
2024-03-10T20:46:30.096Z,14.45
2024-03-10T20:49:04.413Z,14.28
2024-03-10T20:51:31.327Z,14.36
2024-03-10T20:53:58.201Z,14.34
2024-03-10T20:56:26.220Z,14.44
2024-03-10T20:58:53.112Z,14.26
2024-03-10T21:01:23.364Z,14.46
2024-03-10T21:03:57.437Z,14.45
2024-03-10T21:06:24.142Z,14.59
2024-03-10T21:08:51.075Z,14.46
2024-03-10T21:11:18.591Z,14.51
2024-03-10T21:13:45.226Z,14.47
2024-03-10T21:16:13.910Z,14.60
2024-03-10T21:18:40.490Z,14.60
2024-03-10T21:21:07.215Z,14.52
2024-03-10T21:23:33.944Z,14.39
2024-03-10T21:26:00.404Z,14.42
2024-03-10T21:28:26.880Z,14.36
2024-03-10T21:30:53.355Z,14.46
2024-03-10T21:33:20.080Z,14.42
2024-03-10T21:35:46.844Z,14.35
2024-03-10T21:38:13.576Z,14.45
2024-03-10T21:40:40.208Z,14.58
2024-03-10T21:43:06.783Z,14.54
2024-03-10T21:45:33.347Z,14.58
2024-03-10T21:48:00.037Z,14.56
2024-03-10T21:50:26.703Z,14.44
2024-03-10T21:52:54.203Z,14.36
2024-03-10T21:55:20.834Z,14.05
2024-03-10T21:57:47.529Z,14.14
2024-03-10T22:00:14.844Z,14.00
2024-03-10T22:02:41.732Z,14.05
2024-03-10T22:05:08.267Z,14.05
2024-03-10T22:07:34.822Z,13.98
2024-03-10T22:10:01.547Z,14.00
2024-03-10T22:12:28.255Z,14.00
2024-03-10T22:14:54.844Z,13.94
2024-03-10T22:17:21.629Z,14.01
2024-03-10T22:19:48.411Z,14.07
2024-03-10T22:22:15.407Z,14.05
2024-03-10T22:24:41.906Z,14.03
2024-03-10T22:27:08.932Z,13.92
2024-03-10T22:29:35.684Z,13.96
2024-03-10T22:32:02.722Z,13.73
2024-03-10T22:34:29.640Z,13.79
2024-03-10T22:37:00.186Z,13.86
2024-03-10T22:39:26.820Z,13.88
2024-03-10T22:41:53.456Z,13.90
2024-03-10T22:44:20.629Z,13.82
2024-03-10T22:46:47.080Z,13.80
2024-03-10T22:49:13.959Z,13.56
2024-03-10T22:51:40.409Z,13.67
2024-03-10T22:54:06.883Z,13.80
2024-03-10T22:56:33.560Z,13.61
2024-03-10T22:59:00.367Z,13.47
2024-03-10T23:01:27.590Z,13.77
2024-03-10T23:03:53.975Z,13.84
2024-03-10T23:06:23.832Z,13.79
2024-03-10T23:08:52.170Z,13.63
2024-03-10T23:11:21.227Z,13.64
2024-03-10T23:13:48.344Z,13.26
2024-03-10T23:16:15.528Z,13.62
2024-03-10T23:18:42.021Z,13.62
2024-03-10T23:21:08.848Z,13.50
2024-03-10T23:23:35.651Z,13.43
2024-03-10T23:26:02.507Z,13.44
2024-03-10T23:28:30.042Z,13.48
2024-03-10T23:30:56.915Z,13.53
2024-03-10T23:33:23.438Z,13.46
2024-03-10T23:35:49.997Z,13.65
2024-03-10T23:38:16.878Z,13.86
2024-03-10T23:40:43.591Z,13.81
2024-03-10T23:43:10.960Z,13.70
2024-03-10T23:45:38.454Z,13.82
2024-03-10T23:48:05.009Z,13.78
2024-03-10T23:50:31.619Z,13.68
2024-03-10T23:52:58.473Z,13.62
2024-03-10T23:55:25.231Z,13.78
2024-03-10T23:57:51.732Z,13.78
